Time;durP1;ratioP1;P1;durP2;ratioP2;P2;SDS_P1;SDS_P2;PMS_P1;PMS_P2;Temp;Humidity;BMP_temperature;BMP_pressure;BME280_temperature;BME280_humidity;BME280_pressure;Samples;Min_cycle;Max_cycle;Signal;HPM_P1;HPM_P2
2022/07/25 00:00:30;;;;;;;1.90;1.70;;;19.30;71.20;;;;;;5002170;28;20064;-72
2022/07/25 00:02:55;;;;;;;2.53;1.70;;;19.40;71.10;;;;;;5004669;28;20049;-72
2022/07/25 00:05:21;;;;;;;1.73;1.58;;;19.40;70.80;;;;;;5005272;28;20030;-72
2022/07/25 00:07:47;;;;;;;2.90;1.58;;;19.30;70.60;;;;;;5003098;28;20033;-73
2022/07/25 00:10:13;;;;;;;2.22;1.73;;;19.40;70.40;;;;;;5006721;28;20104;-72
2022/07/25 00:12:39;;;;;;;2.70;1.88;;;19.50;70.20;;;;;;5015275;28;20457;-72
2022/07/25 00:15:05;;;;;;;2.88;1.98;;;19.50;70.30;;;;;;5008728;28;20022;-72
2022/07/25 00:17:31;;;;;;;2.78;1.45;;;19.50;70.20;;;;;;5005510;28;20083;-72
2022/07/25 00:19:57;;;;;;;2.03;1.70;;;19.60;70.30;;;;;;5012421;28;20033;-72
2022/07/25 00:22:22;;;;;;;9.07;2.05;;;19.60;71.00;;;;;;5006692;28;20044;-72
2022/07/25 00:24:48;;;;;;;1.90;1.80;;;19.50;71.00;;;;;;5006172;28;20116;-72
2022/07/25 00:27:14;;;;;;;1.73;1.63;;;19.50;71.10;;;;;;5011706;28;20496;-72
2022/07/25 00:29:39;;;;;;;13.15;2.30;;;19.50;71.20;;;;;;5009009;28;20037;-72
2022/07/25 00:32:05;;;;;;;4.82;1.77;;;19.50;71.60;;;;;;5013383;28;20091;-72
2022/07/25 00:34:31;;;;;;;1.95;1.70;;;19.40;72.20;;;;;;5011821;28;20439;-73
2022/07/25 00:36:57;;;;;;;2.55;1.83;;;19.40;72.20;;;;;;5006919;28;20594;-72
2022/07/25 00:39:22;;;;;;;2.45;1.70;;;19.40;72.70;;;;;;5007797;28;20042;-72
2022/07/25 00:41:48;;;;;;;2.03;1.48;;;19.40;72.60;;;;;;5008507;28;20025;-72
2022/07/25 00:44:25;;;;;;;2.10;1.90;;;19.50;72.70;;;;;;5009167;28;20083;-72
2022/07/25 00:46:51;;;;;;;3.38;1.80;;;19.50;72.90;;;;;;5006013;28;20434;-72
2022/07/25 00:49:17;;;;;;;4.45;1.80;;;19.50;73.00;;;;;;4987966;28;20054;-72
2022/07/25 00:51:44;;;;;;;3.47;2.00;;;19.50;73.30;;;;;;4987827;28;20022;-72
2022/07/25 00:54:10;;;;;;;2.50;1.88;;;19.50;73.60;;;;;;4985115;28;20033;-72
2022/07/25 00:56:36;;;;;;;2.38;1.90;;;19.50;74.40;;;;;;4993288;28;20498;-72
2022/07/25 00:59:02;;;;;;;4.20;2.08;;;19.50;74.40;;;;;;4988646;28;20033;-72
2022/07/25 01:01:28;;;;;;;2.70;2.10;;;19.40;74.50;;;;;;4987048;28;20026;-72
2022/07/25 01:03:53;;;;;;;2.75;2.55;;;19.50;74.70;;;;;;4990829;28;20042;-72
2022/07/25 01:06:20;;;;;;;2.45;2.00;;;19.40;75.30;;;;;;4993540;28;20093;-75
2022/07/25 01:08:46;;;;;;;2.38;2.05;;;19.40;75.30;;;;;;4982265;28;20042;-75
2022/07/25 01:11:12;;;;;;;9.32;2.50;;;19.40;75.40;;;;;;4988191;28;20269;-75
2022/07/25 01:13:38;;;;;;;6.70;2.40;;;19.40;75.90;;;;;;4989095;28;20041;-75
2022/07/25 01:16:04;;;;;;;2.55;2.15;;;19.40;76.00;;;;;;4987485;28;20118;-75
2022/07/25 01:18:30;;;;;;;3.10;2.05;;;19.40;76.10;;;;;;4991706;28;20045;-75
2022/07/25 01:20:55;;;;;;;16.05;2.38;;;19.30;76.20;;;;;;4987762;28;20040;-75
2022/07/25 01:23:21;;;;;;;3.97;2.10;;;19.40;76.30;;;;;;4989390;28;23434;-75
2022/07/25 01:25:46;;;;;;;2.45;2.25;;;19.40;76.50;;;;;;4985488;28;20034;-75
2022/07/25 01:28:12;;;;;;;2.95;1.98;;;19.20;77.10;;;;;;4989865;28;20053;-76
2022/07/25 01:30:38;;;;;;;3.15;2.60;;;19.10;77.70;;;;;;4990575;28;20034;-75
2022/07/25 01:33:04;;;;;;;6.82;3.35;;;19.10;78.20;;;;;;4990725;28;20031;-75
2022/07/25 01:35:29;;;;;;;4.35;3.13;;;19.00;78.40;;;;;;4991443;28;20039;-75
2022/07/25 01:37:55;;;;;;;5.22;3.70;;;19.10;78.20;;;;;;4989463;28;20092;-75
2022/07/25 01:40:21;;;;;;;4.32;3.92;;;19.20;78.30;;;;;;4988088;28;20128;-75
2022/07/25 01:42:46;;;;;;;3.20;2.90;;;19.10;78.50;;;;;;4986601;28;20026;-75
2022/07/25 01:45:12;;;;;;;3.50;3.03;;;19.10;78.60;;;;;;4984135;28;20033;-75
2022/07/25 01:47:38;;;;;;;2.65;2.45;;;19.10;79.30;;;;;;4994879;28;20053;-76
2022/07/25 01:50:05;;;;;;;5.13;2.92;;;18.90;80.10;;;;;;5010397;28;20033;-75
2022/07/25 01:52:31;;;;;;;2.95;2.58;;;18.70;80.70;;;;;;5013550;28;20033;-75
2022/07/25 01:54:57;;;;;;;4.45;2.30;;;18.70;80.60;;;;;;5002947;28;20028;-75
2022/07/25 01:57:22;;;;;;;3.47;2.50;;;18.70;80.50;;;;;;5009860;28;20029;-75
2022/07/25 01:59:48;;;;;;;2.22;2.13;;;18.70;80.60;;;;;;5012410;28;20041;-75
2022/07/25 02:02:14;;;;;;;3.50;2.35;;;18.60;81.60;;;;;;5005242;28;20033;-76
2022/07/25 02:04:39;;;;;;;2.35;2.15;;;18.50;82.40;;;;;;5006625;28;20060;-75
2022/07/25 02:07:05;;;;;;;2.30;2.15;;;18.40;82.90;;;;;;5006753;28;20038;-76
2022/07/25 02:09:31;;;;;;;18.52;2.80;;;18.20;83.70;;;;;;5003446;28;20036;-76
2022/07/25 02:11:56;;;;;;;6.85;3.00;;;18.10;84.40;;;;;;5006543;28;20041;-76
2022/07/25 02:14:22;;;;;;;2.35;2.15;;;18.10;84.60;;;;;;5015049;28;20029;-76
2022/07/25 02:16:48;;;;;;;2.70;2.50;;;18.00;84.90;;;;;;5014904;28;20057;-76
2022/07/25 02:19:14;;;;;;;2.65;2.45;;;17.90;85.40;;;;;;5016339;28;20033;-76
2022/07/25 02:21:39;;;;;;;5.95;2.17;;;17.90;85.80;;;;;;5012605;28;20747;-76
2022/07/25 02:24:06;;;;;;;3.58;2.10;;;17.90;86.00;;;;;;5007596;28;20038;-76
2022/07/25 02:26:32;;;;;;;5.03;2.33;;;17.90;86.20;;;;;;5006852;28;20036;-75
2022/07/25 02:28:57;;;;;;;3.42;2.17;;;17.90;86.10;;;;;;5006207;28;20037;-76
2022/07/25 02:31:23;;;;;;;6.25;2.80;;;18.00;85.20;;;;;;5008426;28;20129;-75
2022/07/25 02:33:49;;;;;;;2.28;2.08;;;18.10;84.60;;;;;;5007052;28;21506;-75
2022/07/25 02:36:15;;;;;;;2.85;2.40;;;18.20;84.30;;;;;;5009647;28;20025;-76
2022/07/25 02:38:41;;;;;;;3.88;2.67;;;18.20;83.80;;;;;;5008785;28;20034;-76
2022/07/25 02:41:07;;;;;;;3.97;2.53;;;18.30;83.80;;;;;;5007381;28;20049;-75
2022/07/25 02:43:32;;;;;;;2.28;2.08;;;18.20;83.70;;;;;;5011943;28;20076;-76
2022/07/25 02:45:58;;;;;;;3.58;2.83;;;18.30;83.40;;;;;;5000083;28;20029;-76
2022/07/25 02:48:24;;;;;;;6.43;2.42;;;18.30;83.80;;;;;;4991350;28;20050;-75
2022/07/25 02:50:49;;;;;;;6.18;2.28;;;18.10;85.10;;;;;;5005206;28;20047;-75
2022/07/25 02:53:15;;;;;;;7.25;2.75;;;18.00;86.40;;;;;;5015849;28;20025;-75
2022/07/25 02:55:40;;;;;;;3.97;2.65;;;17.90;86.50;;;;;;5012185;28;20610;-76
2022/07/25 02:58:06;;;;;;;3.45;2.20;;;17.80;87.20;;;;;;5013840;28;20113;-76
2022/07/25 03:00:32;;;;;;;4.15;2.60;;;17.80;87.20;;;;;;5013123;28;20579;-75
2022/07/25 03:02:58;;;;;;;4.13;2.50;;;17.70;88.10;;;;;;5012273;28;20041;-76
2022/07/25 03:05:23;;;;;;;4.60;2.35;;;17.60;88.80;;;;;;5014165;28;20037;-75
2022/07/25 03:07:49;;;;;;;3.83;2.50;;;17.40;89.70;;;;;;5012797;28;20053;-75
2022/07/25 03:10:15;;;;;;;2.70;2.50;;;17.30;90.50;;;;;;4999510;28;20026;-76
2022/07/25 03:12:42;;;;;;;2.78;2.50;;;17.20;90.90;;;;;;5013387;28;20134;-76
2022/07/25 03:15:09;;;;;;;2.58;2.38;;;17.10;91.10;;;;;;5009935;28;20036;-76
2022/07/25 03:17:35;;;;;;;4.70;2.35;;;17.10;91.30;;;;;;5012574;28;20041;-76
2022/07/25 03:20:00;;;;;;;3.63;2.60;;;17.10;91.00;;;;;;5010933;28;20038;-75
2022/07/25 03:22:26;;;;;;;4.43;2.67;;;16.90;91.50;;;;;;5012424;28;20402;-75
2022/07/25 03:24:52;;;;;;;2.95;2.65;;;16.70;91.80;;;;;;5011084;28;20057;-76
2022/07/25 03:27:18;;;;;;;15.63;3.17;;;16.60;91.90;;;;;;5012265;28;20033;-76
2022/07/25 03:29:44;;;;;;;3.03;2.72;;;16.60;92.40;;;;;;5012187;28;20034;-76
2022/07/25 03:32:09;;;;;;;3.67;2.83;;;16.60;92.60;;;;;;5008853;28;20037;-76
2022/07/25 03:34:35;;;;;;;6.00;2.90;;;16.70;92.60;;;;;;5012654;28;20723;-76
2022/07/25 03:37:02;;;;;;;4.00;2.90;;;16.70;92.80;;;;;;5009733;28;20034;-76
2022/07/25 03:39:28;;;;;;;3.05;2.75;;;16.60;92.90;;;;;;5012898;28;20029;-76
2022/07/25 03:41:54;;;;;;;4.15;3.10;;;16.50;93.40;;;;;;5007245;28;20030;-76
2022/07/25 03:44:22;;;;;;;3.15;2.42;;;16.40;93.60;;;;;;5017467;28;20716;-76
2022/07/25 03:46:48;;;;;;;3.00;2.70;;;16.50;93.80;;;;;;4996600;28;21615;-76
2022/07/25 03:49:13;;;;;;;15.02;3.72;;;16.50;94.10;;;;;;5010197;28;20073;-76
2022/07/25 03:51:39;;;;;;;33.35;4.63;;;16.50;94.30;;;;;;5010889;28;20120;-76
2022/07/25 03:54:05;;;;;;;18.92;3.85;;;16.60;94.10;;;;;;5013615;28;20092;-77
2022/07/25 03:56:37;;;;;;;10.43;3.03;;;16.70;94.20;;;;;;5011325;28;20531;-75
2022/07/25 03:59:06;;;;;;;5.03;2.90;;;16.70;94.50;;;;;;5009399;28;20045;-76
2022/07/25 04:01:32;;;;;;;3.28;2.97;;;16.80;94.40;;;;;;5012423;28;20040;-76
2022/07/25 04:03:58;;;;;;;5.55;2.90;;;16.80;94.60;;;;;;5011231;28;20491;-76
2022/07/25 04:06:24;;;;;;;4.90;2.85;;;16.80;94.70;;;;;;5009618;28;20073;-76
2022/07/25 04:08:51;;;;;;;5.38;2.90;;;16.80;94.70;;;;;;5008443;28;20112;-77
2022/07/25 04:11:16;;;;;;;3.42;3.13;;;16.90;94.70;;;;;;5011657;28;20037;-76
2022/07/25 04:13:42;;;;;;;3.15;2.92;;;16.90;94.60;;;;;;5011771;28;20118;-77
2022/07/25 04:16:09;;;;;;;4.72;2.72;;;16.80;94.90;;;;;;5011057;28;20181;-76
2022/07/25 04:18:35;;;;;;;3.17;2.92;;;16.90;94.90;;;;;;5011277;28;20515;-78
2022/07/25 04:21:01;;;;;;;3.28;2.72;;;17.10;95.00;;;;;;5014652;28;20071;-77
2022/07/25 04:23:27;;;;;;;4.43;2.78;;;17.20;94.70;;;;;;5007456;28;20033;-77
2022/07/25 04:25:53;;;;;;;4.15;2.85;;;17.30;94.80;;;;;;5008934;28;20985;-78
2022/07/25 04:28:19;;;;;;;3.05;2.75;;;17.40;94.60;;;;;;5010056;28;20033;-78
2022/07/25 04:30:45;;;;;;;3.72;2.90;;;17.60;94.60;;;;;;5009704;28;20100;-77
2022/07/25 04:33:12;;;;;;;4.50;3.10;;;17.70;94.70;;;;;;5011472;28;20391;-77
2022/07/25 04:35:38;;;;;;;6.68;3.22;;;17.80;94.70;;;;;;5009589;28;20040;-78
2022/07/25 04:38:03;;;;;;;4.32;2.67;;;17.90;94.70;;;;;;5006519;28;20021;-78
2022/07/25 04:40:29;;;;;;;6.60;2.80;;;18.00;94.40;;;;;;4992010;28;20160;-78
2022/07/25 04:42:55;;;;;;;2.90;2.70;;;18.20;94.30;;;;;;5007656;28;20127;-77
2022/07/25 04:45:20;;;;;;;3.85;2.67;;;18.30;94.20;;;;;;5009552;28;20029;-75
2022/07/25 04:47:46;;;;;;;3.17;2.88;;;18.50;94.20;;;;;;5007114;28;20049;-76
2022/07/25 04:50:12;;;;;;;7.72;3.17;;;18.70;94.30;;;;;;5013800;28;20035;-78
2022/07/25 04:52:38;;;;;;;10.77;2.95;;;18.90;94.00;;;;;;5010578;28;20067;-77
2022/07/25 04:55:05;;;;;;;12.85;3.30;;;19.00;94.10;;;;;;5009426;28;20057;-77
2022/07/25 04:57:30;;;;;;;5.70;2.72;;;19.20;93.70;;;;;;5009309;28;20045;-77
2022/07/25 04:59:57;;;;;;;3.67;2.80;;;19.40;93.80;;;;;;5012826;28;20021;-78
2022/07/25 05:02:26;;;;;;;3.13;2.92;;;19.50;93.20;;;;;;5009023;28;20474;-78
2022/07/25 05:04:52;;;;;;;7.68;2.58;;;19.70;93.40;;;;;;5011296;28;20037;-77
2022/07/25 05:07:17;;;;;;;2.67;2.47;;;19.80;93.30;;;;;;5008316;28;20136;-77
2022/07/25 05:09:44;;;;;;;6.90;2.95;;;20.00;93.00;;;;;;5010628;28;20037;-77
2022/07/25 05:12:10;;;;;;;20.90;3.90;;;20.20;92.70;;;;;;5007319;28;20493;-77
2022/07/25 05:14:37;;;;;;;8.50;2.67;;;20.30;92.50;;;;;;5009256;28;20029;-77
2022/07/25 05:17:03;;;;;;;9.57;3.70;;;20.40;92.30;;;;;;5008735;28;20033;-77
2022/07/25 05:19:28;;;;;;;9.05;2.78;;;20.60;92.50;;;;;;5009236;28;20125;-76
2022/07/25 05:21:54;;;;;;;7.47;2.83;;;20.70;92.70;;;;;;5010558;28;20388;-77
2022/07/25 05:24:21;;;;;;;4.95;3.05;;;20.80;93.10;;;;;;5011463;28;20032;-77
2022/07/25 05:26:47;;;;;;;6.88;2.80;;;20.80;93.50;;;;;;5004956;28;20029;-78
2022/07/25 05:29:13;;;;;;;5.00;2.70;;;21.00;93.30;;;;;;5011654;28;20032;-77
2022/07/25 05:31:39;;;;;;;17.25;3.40;;;21.10;93.20;;;;;;5009205;28;20109;-72
2022/07/25 05:34:04;;;;;;;7.15;3.10;;;21.40;92.90;;;;;;5013114;28;20068;-72
2022/07/25 05:36:30;;;;;;;3.65;2.70;;;21.50;92.50;;;;;;5007924;28;20036;-72
2022/07/25 05:38:55;;;;;;;15.23;3.13;;;21.50;92.20;;;;;;5012602;28;20104;-71
2022/07/25 05:41:21;;;;;;;11.63;3.50;;;21.60;92.50;;;;;;5012442;28;20037;-71
2022/07/25 05:43:47;;;;;;;17.33;3.10;;;21.80;92.40;;;;;;5007930;28;20056;-73
2022/07/25 05:46:14;;;;;;;5.68;2.70;;;22.00;92.60;;;;;;5005719;28;20573;-71
2022/07/25 05:48:40;;;;;;;8.10;3.15;;;22.20;92.60;;;;;;5012307;28;20045;-71
2022/07/25 05:51:06;;;;;;;6.15;3.40;;;22.40;92.30;;;;;;5009512;28;20166;-77
2022/07/25 05:53:32;;;;;;;6.55;3.05;;;22.50;91.80;;;;;;5007305;28;20120;-76
2022/07/25 05:55:58;;;;;;;6.03;2.63;;;22.70;91.60;;;;;;5007090;28;20442;-76
2022/07/25 05:58:24;;;;;;;13.30;3.95;;;22.90;91.00;;;;;;5015411;28;20034;-77
2022/07/25 06:00:49;;;;;;;17.88;3.10;;;22.90;90.60;;;;;;4999899;28;20041;-77
2022/07/25 06:03:17;;;;;;;3.47;2.78;;;23.10;90.60;;;;;;5005602;28;20038;-79
2022/07/25 06:05:43;;;;;;;3.10;2.80;;;23.20;89.80;;;;;;5011774;28;20024;-78
2022/07/25 06:08:08;;;;;;;4.63;2.90;;;23.40;89.50;;;;;;5012944;28;20159;-78
2022/07/25 06:10:34;;;;;;;3.63;2.53;;;23.40;88.50;;;;;;5007336;28;20065;-80
2022/07/25 06:13:00;;;;;;;3.20;2.90;;;23.50;86.60;;;;;;5016468;28;20029;-79
2022/07/25 06:15:25;;;;;;;3.50;3.08;;;23.70;86.50;;;;;;5014616;28;20029;-79
2022/07/25 06:17:51;;;;;;;5.65;2.88;;;23.80;84.50;;;;;;5012449;28;20033;-79
2022/07/25 06:20:17;;;;;;;5.65;2.92;;;23.90;80.40;;;;;;5009931;28;20034;-80
2022/07/25 06:22:42;;;;;;;21.92;4.20;;;24.00;79.10;;;;;;5021304;28;20029;-81
2022/07/25 06:25:08;;;;;;;5.72;2.58;;;24.10;78.40;;;;;;5011577;28;20158;-77
2022/07/25 06:27:36;;;;;;;3.40;3.10;;;24.30;77.00;;;;;;5009449;28;20124;-79
2022/07/25 06:30:04;;;;;;;5.50;2.72;;;24.40;74.50;;;;;;5012630;28;20122;-76
2022/07/25 06:32:29;;;;;;;12.80;2.85;;;24.50;73.80;;;;;;5015645;28;20026;-76
2022/07/25 06:34:55;;;;;;;5.80;2.97;;;24.60;71.40;;;;;;5009431;28;20060;-76
2022/07/25 06:37:21;;;;;;;3.83;2.60;;;24.70;71.20;;;;;;5011449;28;20044;-79
2022/07/25 06:39:46;;;;;;;3.58;2.50;;;24.80;69.70;;;;;;5014025;28;20033;-76
2022/07/25 06:42:12;;;;;;;3.58;2.80;;;24.80;70.20;;;;;;5007866;28;20033;-76
2022/07/25 06:44:38;;;;;;;2.28;2.00;;;24.90;70.30;;;;;;5009712;28;20156;-77
2022/07/25 06:47:04;;;;;;;5.07;2.50;;;25.00;69.90;;;;;;5010775;28;20046;-73
2022/07/25 06:49:30;;;;;;;3.78;2.40;;;25.10;69.30;;;;;;5015259;28;20052;-71
2022/07/25 06:51:56;;;;;;;5.57;2.42;;;25.20;67.90;;;;;;4999764;28;20053;-73
2022/07/25 06:54:22;;;;;;;2.78;2.58;;;25.30;67.90;;;;;;5006254;28;20180;-73
2022/07/25 06:56:48;;;;;;;3.40;2.25;;;25.40;66.30;;;;;;5009262;28;20028;-73
2022/07/25 06:59:13;;;;;;;2.60;2.40;;;25.50;66.90;;;;;;5016077;28;20041;-71
2022/07/25 07:01:39;;;;;;;3.63;2.72;;;25.60;65.50;;;;;;5009441;28;20022;-72
2022/07/25 07:04:05;;;;;;;2.85;2.30;;;25.60;65.00;;;;;;5011105;28;20037;-72
2022/07/25 07:06:31;;;;;;;2.88;2.17;;;25.70;65.00;;;;;;5007447;28;20033;-73
2022/07/25 07:08:57;;;;;;;3.20;2.25;;;25.70;66.70;;;;;;5009074;28;20026;-72
2022/07/25 07:11:22;;;;;;;2.47;2.28;;;25.80;66.10;;;;;;5013926;28;20039;-71
2022/07/25 07:13:48;;;;;;;3.42;2.35;;;26.00;64.50;;;;;;5013281;28;20026;-73
2022/07/25 07:16:14;;;;;;;3.13;2.50;;;26.00;63.80;;;;;;5005155;28;20477;-73
2022/07/25 07:18:39;;;;;;;2.58;2.33;;;26.10;63.90;;;;;;5011272;28;20048;-73
2022/07/25 07:21:05;;;;;;;2.42;2.22;;;26.10;63.60;;;;;;5008240;28;20056;-72
2022/07/25 07:23:31;;;;;;;3.63;2.15;;;26.20;63.90;;;;;;5016105;28;20522;-71
2022/07/25 07:25:57;;;;;;;3.08;2.10;;;26.30;64.60;;;;;;5001494;28;20025;-71
2022/07/25 07:28:23;;;;;;;3.22;2.13;;;26.50;63.50;;;;;;5014843;28;20032;-71
2022/07/25 07:30:48;;;;;;;4.85;2.03;;;26.50;61.30;;;;;;5014699;28;20029;-72
2022/07/25 07:33:14;;;;;;;3.33;2.38;;;26.60;62.40;;;;;;5013520;28;20042;-71
2022/07/25 07:35:43;;;;;;;5.90;2.33;;;26.60;61.10;;;;;;5005634;28;20571;-72
2022/07/25 07:38:08;;;;;;;8.05;2.45;;;26.70;61.20;;;;;;5004362;28;20037;-72
2022/07/25 07:40:34;;;;;;;3.80;2.47;;;26.70;60.70;;;;;;5012080;28;20040;-72
2022/07/25 07:43:02;;;;;;;3.50;2.25;;;26.70;60.30;;;;;;5011029;28;20013;-72
2022/07/25 07:45:29;;;;;;;5.20;2.10;;;26.70;59.80;;;;;;5012749;28;20026;-76
2022/07/25 07:47:55;;;;;;;5.25;2.50;;;26.80;59.50;;;;;;5012959;28;20430;-74
2022/07/25 07:50:25;;;;;;;10.80;2.67;;;26.80;59.20;;;;;;5012260;28;20040;-74
2022/07/25 07:52:52;;;;;;;3.50;3.20;;;26.80;59.20;;;;;;5013489;28;20026;-74
2022/07/25 07:58:03;;;;;;;2.50;2.20;;;26.80;58.90;;;;;;5006112;28;20540;-73
2022/07/25 08:00:30;;;;;;;2.63;2.40;;;26.80;58.70;;;;;;5003624;28;20033;-73
2022/07/25 08:02:56;;;;;;;2.85;2.28;;;26.80;58.60;;;;;;5013635;28;20491;-72
2022/07/25 08:05:25;;;;;;;4.03;2.03;;;26.80;59.60;;;;;;4995503;28;20034;-73
2022/07/25 08:07:52;;;;;;;5.07;2.25;;;27.00;59.50;;;;;;4986651;28;20491;-72
2022/07/25 08:10:23;;;;;;;3.05;2.50;;;27.10;58.40;;;;;;5011102;28;20018;-73
2022/07/25 08:12:49;;;;;;;2.90;2.28;;;27.10;58.20;;;;;;5005027;28;20025;-72
2022/07/25 08:15:16;;;;;;;3.80;2.20;;;27.20;58.70;;;;;;5011348;28;20034;-72
2022/07/25 08:17:43;;;;;;;4.65;2.33;;;27.30;58.00;;;;;;5015471;28;20065;-74
2022/07/25 08:20:10;;;;;;;2.15;1.98;;;27.40;57.40;;;;;;5015003;28;20528;-72
2022/07/25 08:22:40;;;;;;;3.33;2.30;;;27.50;58.00;;;;;;5003121;28;20535;-75
2022/07/25 08:25:09;;;;;;;2.33;2.10;;;27.50;56.60;;;;;;5005647;28;20494;-76
2022/07/25 08:27:35;;;;;;;2.72;2.50;;;27.50;57.00;;;;;;5005134;28;20680;-75
2022/07/25 08:30:03;;;;;;;2.88;2.00;;;27.50;56.70;;;;;;5003675;28;20037;-75
2022/07/25 08:32:29;;;;;;;2.55;2.35;;;27.50;55.90;;;;;;5006427;28;20032;-75
2022/07/25 08:34:55;;;;;;;2.50;2.22;;;27.50;56.50;;;;;;5005723;28;20037;-74
2022/07/25 08:37:21;;;;;;;3.88;2.30;;;27.50;56.20;;;;;;5005014;28;20030;-75
2022/07/25 08:39:47;;;;;;;2.58;2.38;;;27.50;55.40;;;;;;5005200;28;20048;-76
2022/07/25 08:42:14;;;;;;;2.22;2.03;;;27.40;55.60;;;;;;5007059;28;20656;-75
2022/07/25 08:44:43;;;;;;;2.40;2.20;;;27.40;56.80;;;;;;5002830;28;20065;-75
2022/07/25 08:47:09;;;;;;;3.83;2.15;;;27.50;56.50;;;;;;5003467;28;20072;-75
2022/07/25 08:49:35;;;;;;;2.80;2.30;;;27.60;55.90;;;;;;5002002;28;20420;-75
2022/07/25 08:52:05;;;;;;;2.70;2.30;;;27.70;55.80;;;;;;5004845;28;20022;-75
2022/07/25 08:54:31;;;;;;;2.85;2.25;;;27.70;54.90;;;;;;5001504;28;20406;-76
2022/07/25 08:56:56;;;;;;;2.30;2.10;;;27.80;54.00;;;;;;5007267;28;20025;-75
2022/07/25 08:59:22;;;;;;;4.22;2.35;;;27.70;54.00;;;;;;5006546;28;20248;-76
2022/07/25 09:01:48;;;;;;;2.42;2.05;;;27.80;54.80;;;;;;5007283;28;20022;-74
2022/07/25 09:04:14;;;;;;;4.50;2.63;;;27.90;54.00;;;;;;5001963;28;20041;-75
2022/07/25 09:06:50;;;;;;;3.22;2.22;;;27.90;54.40;;;;;;5004828;28;20030;-77
2022/07/25 09:09:16;;;;;;;2.20;2.00;;;27.90;53.40;;;;;;5006927;28;20046;-76
2022/07/25 09:11:42;;;;;;;2.80;2.20;;;28.00;54.40;;;;;;5000278;28;20576;-75
2022/07/25 09:14:10;;;;;;;2.45;2.25;;;28.00;52.50;;;;;;5012927;28;20048;-74
2022/07/25 09:16:41;;;;;;;2.42;2.03;;;28.00;53.60;;;;;;5014454;28;20029;-76
2022/07/25 09:19:18;;;;;;;4.00;1.92;;;28.10;53.50;;;;;;5014083;28;20485;-77
2022/07/25 09:21:56;;;;;;;2.10;1.90;;;28.10;53.10;;;;;;5020505;28;20033;-76
2022/07/25 09:24:21;;;;;;;3.42;1.80;;;28.20;53.70;;;;;;5015099;28;20056;-75
2022/07/25 09:26:50;;;;;;;2.17;2.03;;;28.30;53.00;;;;;;5005759;28;20160;-75
2022/07/25 09:29:28;;;;;;;2.22;2.03;;;28.30;52.10;;;;;;5020243;28;20040;-75
2022/07/25 09:31:55;;;;;;;4.90;2.15;;;28.20;52.80;;;;;;5022109;28;20024;-77
2022/07/25 09:34:43;;;;;;;2.10;2.00;;;28.30;54.50;;;;;;5017612;28;20037;-76
2022/07/25 09:37:13;;;;;;;2.53;1.90;;;28.40;54.30;;;;;;5017577;28;20030;-75
2022/07/25 09:39:50;;;;;;;4.70;2.40;;;28.60;53.20;;;;;;5020830;28;20490;-79
2022/07/25 09:42:23;;;;;;;4.15;2.22;;;28.70;51.10;;;;;;5021128;28;20034;-77
2022/07/25 09:45:01;;;;;;;4.53;2.20;;;28.50;51.50;;;;;;5017925;28;20052;-79
2022/07/25 09:47:29;;;;;;;2.72;2.38;;;28.50;51.70;;;;;;5015732;28;20040;-80
2022/07/25 09:49:55;;;;;;;2.47;2.28;;;28.50;51.90;;;;;;5003745;28;20053;-78
2022/07/25 09:52:21;;;;;;;2.42;1.98;;;28.50;51.70;;;;;;5020961;28;20115;-79
2022/07/25 09:54:47;;;;;;;2.38;2.15;;;28.50;50.80;;;;;;5003952;28;20041;-77
2022/07/25 09:57:12;;;;;;;1.73;1.63;;;28.50;51.30;;;;;;5008300;28;20036;-71
2022/07/25 09:59:38;;;;;;;2.45;1.90;;;28.60;51.80;;;;;;5011897;28;20120;-72
2022/07/25 10:02:34;;;;;;;2.15;1.80;;;28.70;49.90;;;;;;5015564;28;20029;-71
2022/07/25 10:05:14;;;;;;;1.85;1.75;;;28.70;51.00;;;;;;5017689;28;20498;-74
2022/07/25 10:07:45;;;;;;;5.10;1.67;;;28.80;50.20;;;;;;5018261;28;20048;-72
2022/07/25 10:10:28;;;;;;;2.30;2.10;;;28.90;49.00;;;;;;5016791;28;20032;-72
2022/07/25 10:13:05;;;;;;;2.20;2.00;;;28.90;50.20;;;;;;5009868;28;20349;-71
2022/07/25 10:15:45;;;;;;;2.97;1.63;;;29.10;49.10;;;;;;5014853;28;20021;-71
2022/07/25 10:18:12;;;;;;;2.58;1.95;;;29.10;49.40;;;;;;5014687;28;20026;-71
2022/07/25 10:20:38;;;;;;;2.25;1.88;;;29.30;49.60;;;;;;5019761;28;20020;-72
2022/07/25 10:23:15;;;;;;;2.78;1.85;;;29.40;49.10;;;;;;5019030;28;20018;-71
2022/07/25 10:25:40;;;;;;;4.85;1.98;;;29.40;48.50;;;;;;5019853;28;20033;-71
2022/07/25 10:28:08;;;;;;;2.70;1.77;;;29.50;47.20;;;;;;5015690;28;20049;-71
2022/07/25 10:30:38;;;;;;;1.85;1.75;;;29.40;47.00;;;;;;5001861;28;20048;-71
2022/07/25 10:33:12;;;;;;;1.70;1.60;;;29.40;47.90;;;;;;5006799;28;20036;-70
2022/07/25 10:35:38;;;;;;;1.73;1.63;;;29.40;48.40;;;;;;5000621;28;20386;-71
2022/07/25 10:38:06;;;;;;;2.58;2.00;;;29.60;49.20;;;;;;5005526;28;20159;-71
2022/07/25 10:40:35;;;;;;;1.88;1.77;;;29.70;47.20;;;;;;5005198;28;20033;-70
2022/07/25 10:43:21;;;;;;;1.90;1.80;;;29.60;47.00;;;;;;5004582;28;20063;-71
2022/07/25 10:45:57;;;;;;;2.03;1.75;;;29.70;46.70;;;;;;5001466;28;20075;-72
2022/07/25 10:48:28;;;;;;;1.98;1.80;;;29.70;46.40;;;;;;5005148;28;20260;-72
2022/07/25 10:50:58;;;;;;;2.60;1.80;;;29.70;46.40;;;;;;5003944;28;20053;-71
2022/07/25 10:53:31;;;;;;;2.47;2.00;;;29.70;45.90;;;;;;5004112;28;20032;-71
2022/07/25 10:56:02;;;;;;;2.22;1.70;;;29.70;46.20;;;;;;4997457;28;20021;-71
2022/07/25 10:58:44;;;;;;;2.70;1.80;;;29.70;45.30;;;;;;5005387;28;20111;-70
2022/07/25 11:01:10;;;;;;;3.05;1.80;;;29.70;46.40;;;;;;5000518;28;20031;-70
2022/07/25 11:03:36;;;;;;;3.58;1.60;;;29.90;46.40;;;;;;4997952;28;20075;-72
2022/07/25 11:06:01;;;;;;;1.95;1.70;;;30.10;47.10;;;;;;5003323;28;20540;-70
2022/07/25 11:08:34;;;;;;;1.83;1.70;;;30.20;45.10;;;;;;5003634;28;20129;-73
2022/07/25 11:11:01;;;;;;;2.95;1.45;;;30.30;44.30;;;;;;5005056;28;20029;-71
2022/07/25 11:13:26;;;;;;;6.25;1.55;;;30.20;43.70;;;;;;5000474;28;20533;-70
2022/07/25 11:15:58;;;;;;;3.58;1.67;;;30.20;43.40;;;;;;5004927;28;20075;-71
2022/07/25 11:18:36;;;;;;;2.45;1.80;;;30.10;43.10;;;;;;5000695;28;20036;-69
2022/07/25 11:21:03;;;;;;;1.55;1.35;;;30.00;44.30;;;;;;5002597;28;20041;-69
2022/07/25 11:23:29;;;;;;;2.72;1.60;;;29.90;43.60;;;;;;4998177;28;20875;-69
2022/07/25 11:26:08;;;;;;;2.05;1.70;;;30.10;45.00;;;;;;5009920;28;20036;-69
2022/07/25 11:28:48;;;;;;;10.70;1.98;;;30.30;43.80;;;;;;5007148;28;20044;-71
2022/07/25 13:25:47;;;;;;;;;;;31.60;42.50;;;;;;4979145;28;20084;-69
2022/07/25 13:28:12;;;;;;;2.78;2.10;;;31.70;42.30;;;;;;4981834;28;20048;-69
2022/07/25 13:30:38;;;;;;;2.30;1.95;;;31.70;42.40;;;;;;4993072;28;20120;-71
2022/07/25 13:33:03;;;;;;;7.63;1.85;;;31.60;41.50;;;;;;4990307;28;20484;-68
2022/07/25 13:35:30;;;;;;;2.53;1.60;;;31.50;41.40;;;;;;4994881;28;20121;-68
2022/07/25 13:37:55;;;;;;;3.45;1.60;;;31.40;41.40;;;;;;4991495;28;20026;-69
2022/07/25 13:40:21;;;;;;;3.35;2.00;;;31.40;41.70;;;;;;4980148;28;20434;-69
2022/07/25 13:42:47;;;;;;;2.10;1.95;;;31.30;41.90;;;;;;4989226;28;20048;-69
2022/07/25 13:45:12;;;;;;;3.90;1.88;;;31.40;41.10;;;;;;4990374;28;20529;-68
2022/07/25 13:47:38;;;;;;;7.20;1.92;;;31.40;41.10;;;;;;4990746;28;20065;-69
2022/07/25 13:50:04;;;;;;;3.65;2.08;;;31.30;41.10;;;;;;4990156;28;20031;-68
2022/07/25 13:52:30;;;;;;;2.15;1.95;;;31.30;41.30;;;;;;4988962;28;20510;-75
2022/07/25 13:54:56;;;;;;;2.50;1.70;;;31.30;41.20;;;;;;4992372;28;20037;-75
2022/07/25 13:57:21;;;;;;;7.78;2.20;;;31.40;41.60;;;;;;4991496;28;20049;-76
2022/07/25 13:59:47;;;;;;;2.17;1.85;;;31.60;41.10;;;;;;4993647;28;20832;-74
2022/07/25 14:02:13;;;;;;;2.25;1.85;;;31.50;41.00;;;;;;4990469;28;20041;-75
2022/07/25 14:04:38;;;;;;;8.20;2.05;;;31.60;41.70;;;;;;4993851;28;20561;-74
2022/07/25 14:07:04;;;;;;;2.85;2.10;;;31.70;41.20;;;;;;4999278;28;20022;-75
2022/07/25 14:09:30;;;;;;;5.65;2.00;;;31.70;41.40;;;;;;4999158;28;20034;-73
2022/07/25 14:11:56;;;;;;;2.17;1.98;;;31.80;40.70;;;;;;4994626;28;20034;-73
2022/07/25 14:14:21;;;;;;;3.58;1.80;;;31.80;40.80;;;;;;4998488;28;20125;-70
2022/07/25 14:16:47;;;;;;;4.85;1.88;;;31.70;39.90;;;;;;4990219;28;20035;-70
2022/07/25 14:19:14;;;;;;;3.40;2.00;;;31.70;40.40;;;;;;4995412;28;20039;-72
2022/07/25 14:21:39;;;;;;;1.70;1.60;;;31.60;40.00;;;;;;4993831;28;20041;-71
2022/07/25 14:24:06;;;;;;;4.80;1.90;;;31.70;40.70;;;;;;4997822;28;20670;-75
2022/07/25 14:26:33;;;;;;;2.00;1.90;;;31.70;40.00;;;;;;5019846;28;20049;-75
2022/07/25 14:28:58;;;;;;;2.05;1.95;;;31.90;40.90;;;;;;5019019;28;20094;-76
2022/07/25 14:31:43;;;;;;;1.73;1.63;;;32.00;40.30;;;;;;5014782;28;20042;-78
2022/07/25 14:34:09;;;;;;;6.30;1.83;;;32.00;40.10;;;;;;5011516;28;20039;-74
2022/07/25 14:36:35;;;;;;;3.13;2.20;;;32.10;40.20;;;;;;5016414;28;20539;-76
2022/07/25 14:39:02;;;;;;;2.40;2.15;;;32.10;40.30;;;;;;5018492;28;20038;-77
2022/07/25 14:41:28;;;;;;;2.10;1.90;;;32.10;39.50;;;;;;5019113;28;20037;-74